createdAt,value
2023-08-08T00:00:44.428Z,2.60
2023-08-08T00:03:12.633Z,1.67
2023-08-08T00:05:40.864Z,1.77
2023-08-08T00:08:08.999Z,2.10
2023-08-08T00:10:38.502Z,1.87
2023-08-08T00:13:06.642Z,1.70
2023-08-08T00:15:34.877Z,2.53
2023-08-08T00:18:03.073Z,1.97
2023-08-08T00:20:34.134Z,3.53
2023-08-08T00:23:02.317Z,1.93
2023-08-08T00:25:30.569Z,1.73
2023-08-08T00:28:00.042Z,2.30
2023-08-08T00:30:28.140Z,2.67
2023-08-08T00:32:56.271Z,1.90
2023-08-08T00:35:24.459Z,1.93
2023-08-08T00:37:52.581Z,2.10
2023-08-08T00:40:20.761Z,2.00
2023-08-08T00:42:48.914Z,1.80
2023-08-08T00:45:18.494Z,1.47
2023-08-08T00:47:46.695Z,2.00
2023-08-08T00:50:14.869Z,2.43
2023-08-08T00:52:43.226Z,1.73
2023-08-08T00:55:11.340Z,1.60
2023-08-08T00:57:39.573Z,2.70
2023-08-08T01:00:10.764Z,2.27
2023-08-08T01:02:40.399Z,3.03
2023-08-08T01:05:09.163Z,2.80
2023-08-08T01:07:41.577Z,2.20
2023-08-08T01:10:13.918Z,1.87
2023-08-08T01:12:42.683Z,2.03
2023-08-08T01:15:11.597Z,1.70
2023-08-08T01:17:41.202Z,1.70
2023-08-08T01:20:11.276Z,1.77
2023-08-08T01:22:41.644Z,1.90
2023-08-08T01:25:11.261Z,1.80
2023-08-08T01:27:39.420Z,1.67
2023-08-08T01:30:10.198Z,1.43
2023-08-08T01:32:38.408Z,3.47
2023-08-08T01:35:07.515Z,1.60
2023-08-08T01:37:38.669Z,1.43
2023-08-08T01:40:07.662Z,1.83
2023-08-08T01:42:37.212Z,1.63
2023-08-08T01:45:06.277Z,2.10
2023-08-08T01:47:34.520Z,1.80
2023-08-08T01:50:02.709Z,2.23
2023-08-08T01:52:30.818Z,2.03
2023-08-08T01:54:58.989Z,1.43
2023-08-08T01:57:27.156Z,4.40
2023-08-08T01:59:56.705Z,1.77
2023-08-08T02:02:24.895Z,1.80
2023-08-08T02:04:53.033Z,1.47
2023-08-08T02:07:22.221Z,2.93
2023-08-08T02:09:51.907Z,1.80
2023-08-08T02:12:19.996Z,1.80
2023-08-08T02:14:48.111Z,1.60
2023-08-08T02:17:17.684Z,2.50
2023-08-08T02:19:45.836Z,1.73
2023-08-08T02:22:13.953Z,1.60
2023-08-08T02:24:42.089Z,1.60
2023-08-08T02:27:10.235Z,1.60
2023-08-08T02:29:38.414Z,1.80
2023-08-08T02:32:07.295Z,2.53
2023-08-08T02:34:36.866Z,2.37
2023-08-08T02:37:05.409Z,1.47
2023-08-08T02:39:33.513Z,1.67
2023-08-08T02:42:01.799Z,2.13
2023-08-08T02:44:30.426Z,1.60
2023-08-08T02:46:58.612Z,2.10
2023-08-08T02:49:26.740Z,1.70
2023-08-08T02:51:56.254Z,1.97
2023-08-08T02:54:24.375Z,1.70
2023-08-08T02:56:52.499Z,2.37
2023-08-08T02:59:21.932Z,2.03
2023-08-08T03:01:50.598Z,1.60
2023-08-08T03:04:18.829Z,2.30
2023-08-08T03:06:46.985Z,1.57
2023-08-08T03:09:16.456Z,1.77
2023-08-08T03:11:44.539Z,2.33
2023-08-08T03:14:12.603Z,1.80
2023-08-08T03:16:40.745Z,1.80
2023-08-08T03:19:08.843Z,1.63
2023-08-08T03:21:37.025Z,2.03
2023-08-08T03:24:05.661Z,2.10
2023-08-08T03:26:35.140Z,1.90
2023-08-08T03:29:04.319Z,2.30
2023-08-08T03:31:32.408Z,2.97
2023-08-08T03:34:00.591Z,2.10
2023-08-08T03:36:28.816Z,1.50
2023-08-08T03:38:58.132Z,1.80
2023-08-08T03:41:26.337Z,1.80
2023-08-08T03:43:57.394Z,2.10
2023-08-08T03:46:25.585Z,2.47
2023-08-08T03:48:54.680Z,2.30
2023-08-08T03:51:22.971Z,1.70
2023-08-08T03:53:51.163Z,1.73
2023-08-08T03:56:19.264Z,2.87
2023-08-08T03:58:47.515Z,1.83
2023-08-08T04:01:17.063Z,3.00
2023-08-08T04:03:45.387Z,1.70
2023-08-08T04:06:13.605Z,2.00
2023-08-08T04:08:41.737Z,1.93
2023-08-08T04:11:09.911Z,3.50
2023-08-08T04:13:38.079Z,2.23
2023-08-08T04:16:06.269Z,1.80
2023-08-08T04:18:35.857Z,2.10
2023-08-08T04:21:04.098Z,2.17
2023-08-08T04:23:32.231Z,1.90
2023-08-08T04:26:04.379Z,3.00
2023-08-08T04:28:32.828Z,3.87
2023-08-08T04:31:00.961Z,2.23
2023-08-08T04:33:29.115Z,1.83
2023-08-08T04:35:58.622Z,1.73
2023-08-08T04:38:26.747Z,2.00
2023-08-08T04:40:54.922Z,1.87
2023-08-08T04:43:23.036Z,2.50
2023-08-08T04:45:51.179Z,1.93
2023-08-08T04:48:19.288Z,2.10
2023-08-08T04:50:52.404Z,1.80
2023-08-08T04:53:21.940Z,2.00
2023-08-08T04:55:50.106Z,2.17
2023-08-08T04:58:18.224Z,2.10
2023-08-08T05:00:47.647Z,2.30
2023-08-08T05:03:15.877Z,1.60
2023-08-08T05:05:45.939Z,2.13
2023-08-08T05:08:14.191Z,1.80
2023-08-08T05:10:43.766Z,2.47
2023-08-08T05:13:11.974Z,1.80
2023-08-08T05:15:40.173Z,3.03
2023-08-08T05:18:08.334Z,1.80
2023-08-08T05:20:37.081Z,2.50
2023-08-08T05:23:05.496Z,2.83
2023-08-08T05:25:33.623Z,2.33
2023-08-08T05:28:03.947Z,2.00
2023-08-08T05:30:32.097Z,1.90
2023-08-08T05:33:00.300Z,1.90
2023-08-08T05:35:28.704Z,1.73
2023-08-08T05:37:56.852Z,2.13
2023-08-08T05:40:25.020Z,1.90
2023-08-08T05:42:53.188Z,1.70
2023-08-08T05:45:22.746Z,3.60
2023-08-08T05:47:50.939Z,2.70
2023-08-08T05:50:19.361Z,3.33
2023-08-08T05:52:47.521Z,2.50
2023-08-08T05:55:15.873Z,2.60
2023-08-08T05:57:44.124Z,3.30
2023-08-08T06:00:13.462Z,3.43
2023-08-08T06:02:43.071Z,2.90
2023-08-08T06:05:12.566Z,2.53
2023-08-08T06:07:40.789Z,2.50
2023-08-08T06:10:09.577Z,2.47
2023-08-08T06:12:37.762Z,2.47
2023-08-08T06:15:06.746Z,2.83
2023-08-08T06:17:34.903Z,5.50
2023-08-08T06:20:05.446Z,6.70
2023-08-08T06:22:33.573Z,4.83
2023-08-08T06:25:01.744Z,2.57
2023-08-08T06:27:29.886Z,3.87
2023-08-08T06:29:58.153Z,3.67
2023-08-08T06:32:26.325Z,4.40
2023-08-08T06:34:55.188Z,3.20
2023-08-08T06:37:24.683Z,4.73
2023-08-08T06:39:52.816Z,2.63
2023-08-08T06:42:20.928Z,4.10
2023-08-08T06:44:49.205Z,4.07
2023-08-08T06:47:17.305Z,3.57
2023-08-08T06:49:45.489Z,3.30
2023-08-08T06:52:13.642Z,3.90
2023-08-08T06:54:43.135Z,8.07
2023-08-08T06:57:11.250Z,4.23
2023-08-08T06:59:39.374Z,6.47
2023-08-08T07:02:08.162Z,3.57
2023-08-08T07:04:36.756Z,2.80
2023-08-08T07:07:05.334Z,4.80
2023-08-08T07:09:34.117Z,4.00
2023-08-08T07:12:03.736Z,5.60
2023-08-08T07:14:31.995Z,3.63
2023-08-08T07:17:00.142Z,4.20
2023-08-08T07:19:28.273Z,4.47
2023-08-08T07:21:56.420Z,3.70
2023-08-08T07:24:27.727Z,5.87
2023-08-08T07:26:55.884Z,3.70
2023-08-08T07:29:25.428Z,5.23
2023-08-08T07:31:54.387Z,4.87
2023-08-08T07:34:22.674Z,3.83
2023-08-08T07:36:50.826Z,6.23
2023-08-08T07:39:18.969Z,5.50
2023-08-08T07:41:52.583Z,4.70
2023-08-08T07:44:20.813Z,5.60
2023-08-08T07:46:50.366Z,7.00
2023-08-08T07:49:18.514Z,4.43
2023-08-08T07:51:46.657Z,5.67
2023-08-08T07:54:14.806Z,8.60
2023-08-08T07:56:46.522Z,5.23
2023-08-08T07:59:14.660Z,7.13
2023-08-08T08:01:42.853Z,5.50
2023-08-08T08:04:12.469Z,5.43
2023-08-08T08:06:42.349Z,7.43
2023-08-08T08:09:11.098Z,4.57
2023-08-08T08:11:39.278Z,5.30
2023-08-08T08:14:07.489Z,5.03
2023-08-08T08:16:35.971Z,4.83
2023-08-08T08:19:04.099Z,5.67
2023-08-08T08:21:33.644Z,5.23
2023-08-08T08:24:01.727Z,5.80
2023-08-08T08:26:30.204Z,5.27
2023-08-08T08:28:58.361Z,4.90
2023-08-08T08:31:26.567Z,5.80
2023-08-08T08:33:56.293Z,5.60
2023-08-08T08:36:24.621Z,5.23
2023-08-08T08:38:54.316Z,5.00
2023-08-08T08:41:22.786Z,5.53
2023-08-08T08:43:52.910Z,5.20
2023-08-08T08:46:22.744Z,4.73
2023-08-08T08:48:51.460Z,5.90
2023-08-08T08:51:20.252Z,4.70
2023-08-08T08:53:48.445Z,4.97
2023-08-08T08:56:18.296Z,4.93
2023-08-08T08:58:46.392Z,4.83
2023-08-08T09:01:14.586Z,7.53
2023-08-08T09:03:42.896Z,5.33
2023-08-08T09:06:11.092Z,5.10
2023-08-08T09:08:39.356Z,6.43
2023-08-08T09:11:07.501Z,5.90
2023-08-08T09:13:38.732Z,5.80
2023-08-08T09:16:07.365Z,5.00
2023-08-08T09:18:40.638Z,5.80
2023-08-08T09:21:08.762Z,6.80
2023-08-08T09:23:37.866Z,7.03
2023-08-08T09:26:06.030Z,5.20
2023-08-08T09:28:34.250Z,7.07
2023-08-08T09:31:05.992Z,4.97
2023-08-08T09:33:34.207Z,5.77
2023-08-08T09:36:02.323Z,4.33
2023-08-08T09:38:30.451Z,4.67
2023-08-08T09:40:58.529Z,4.27
2023-08-08T09:43:28.631Z,5.37
2023-08-08T09:45:56.776Z,6.77
2023-08-08T09:48:30.833Z,4.53
2023-08-08T09:50:59.626Z,4.33
2023-08-08T09:53:27.715Z,7.40
2023-08-08T09:55:56.204Z,4.20
2023-08-08T09:58:24.346Z,4.50
2023-08-08T10:00:52.591Z,4.50
2023-08-08T10:03:21.178Z,3.90
2023-08-08T10:05:50.769Z,4.40
2023-08-08T10:08:18.888Z,4.53
2023-08-08T10:10:47.884Z,3.97
2023-08-08T10:13:21.732Z,4.80
2023-08-08T10:15:49.963Z,5.17
2023-08-08T10:18:18.128Z,6.40
2023-08-08T10:20:46.563Z,4.13
2023-08-08T10:23:16.982Z,3.97
2023-08-08T10:25:46.432Z,3.93
2023-08-08T10:28:26.296Z,4.70
2023-08-08T10:30:56.166Z,3.73
2023-08-08T10:33:25.120Z,5.30
2023-08-08T10:36:00.365Z,5.40
2023-08-08T10:38:43.560Z,3.60
2023-08-08T10:41:13.035Z,4.47
2023-08-08T10:43:41.928Z,3.80
2023-08-08T10:46:14.198Z,3.70
2023-08-08T10:48:51.588Z,4.17
2023-08-08T10:51:20.536Z,3.50
2023-08-08T10:53:55.207Z,4.00
2023-08-08T10:56:24.785Z,4.43
2023-08-08T10:58:52.931Z,3.73
2023-08-08T11:01:21.092Z,6.47
2023-08-08T11:03:50.777Z,5.30
2023-08-08T11:06:18.959Z,3.87
2023-08-08T11:08:47.060Z,4.07
2023-08-08T11:11:16.528Z,3.60
2023-08-08T11:13:44.620Z,4.07
2023-08-08T11:16:12.783Z,3.50
2023-08-08T11:18:46.720Z,3.83
2023-08-08T11:21:18.747Z,3.20
2023-08-08T11:23:49.346Z,4.00
2023-08-08T11:26:21.227Z,4.33
2023-08-08T11:28:52.851Z,3.70
2023-08-08T11:31:21.216Z,5.40
2023-08-08T11:33:58.921Z,3.90
2023-08-08T11:36:27.115Z,5.03
2023-08-08T11:38:55.225Z,5.63
2023-08-08T11:41:26.348Z,3.80
2023-08-08T11:43:54.465Z,3.63
2023-08-08T11:46:25.493Z,4.23
2023-08-08T11:48:53.637Z,3.97
2023-08-08T11:51:21.767Z,3.23
2023-08-08T11:53:53.851Z,3.30
2023-08-08T11:56:24.139Z,3.10
2023-08-08T11:58:52.701Z,3.73
2023-08-08T12:01:22.575Z,3.80
2023-08-08T12:03:50.724Z,3.30
2023-08-08T12:06:18.909Z,4.23
2023-08-08T12:08:47.591Z,3.20
2023-08-08T12:11:16.175Z,3.40
2023-08-08T12:13:46.150Z,2.77
2023-08-08T12:16:17.773Z,5.03
2023-08-08T12:18:46.746Z,4.53
2023-08-08T12:21:14.913Z,2.93
2023-08-08T12:23:43.049Z,3.37
2023-08-08T12:26:11.160Z,3.00
2023-08-08T12:28:39.252Z,6.40
2023-08-08T12:31:08.750Z,4.73
2023-08-08T12:33:36.917Z,5.17
2023-08-08T12:36:05.349Z,3.13
2023-08-08T12:38:33.480Z,3.10
2023-08-08T12:41:03.371Z,2.87
2023-08-08T12:43:31.482Z,3.60
2023-08-08T12:45:59.651Z,3.90
2023-08-08T12:48:29.144Z,2.50
2023-08-08T12:50:58.815Z,3.03
2023-08-08T12:53:26.930Z,4.50
2023-08-08T12:55:58.816Z,3.50
2023-08-08T12:58:27.153Z,3.47
2023-08-08T13:00:55.353Z,3.13
2023-08-08T13:03:23.507Z,2.90
2023-08-08T13:05:53.340Z,3.03
2023-08-08T13:08:21.740Z,2.97
2023-08-08T13:10:49.888Z,4.13
2023-08-08T13:13:18.048Z,3.07
2023-08-08T13:15:47.245Z,3.90
2023-08-08T13:18:15.787Z,3.10
2023-08-08T13:20:43.915Z,2.80
2023-08-08T13:23:15.794Z,4.23
2023-08-08T13:25:43.954Z,3.33
2023-08-08T13:28:12.157Z,4.40
2023-08-08T13:30:41.428Z,3.17
2023-08-08T13:33:09.548Z,2.93
2023-08-08T13:35:37.690Z,2.23
2023-08-08T13:38:06.129Z,4.50
2023-08-08T13:40:35.671Z,2.63
2023-08-08T13:43:03.770Z,2.90
2023-08-08T13:45:31.926Z,4.37
2023-08-08T13:48:00.142Z,3.90
2023-08-08T13:50:28.691Z,2.60
2023-08-08T13:52:56.866Z,3.10
2023-08-08T13:55:25.070Z,3.00
2023-08-08T13:57:56.000Z,2.10
2023-08-08T14:00:24.180Z,3.90
2023-08-08T14:02:52.406Z,2.50
2023-08-08T14:05:20.651Z,2.53
2023-08-08T14:07:48.790Z,2.53
2023-08-08T14:10:16.911Z,3.10
2023-08-08T14:12:45.053Z,2.47
2023-08-08T14:15:14.539Z,2.80
2023-08-08T14:17:42.676Z,2.67
2023-08-08T14:20:12.004Z,2.80
2023-08-08T14:22:40.161Z,2.60
2023-08-08T14:25:08.885Z,2.53
2023-08-08T14:27:37.027Z,3.20
2023-08-08T14:30:06.086Z,2.50
2023-08-08T14:32:35.665Z,3.80
2023-08-08T14:35:05.766Z,3.43
2023-08-08T14:37:33.954Z,2.93
2023-08-08T14:40:02.133Z,3.50
2023-08-08T14:42:30.265Z,3.20
2023-08-08T14:44:58.385Z,3.20
2023-08-08T14:47:26.652Z,3.87
2023-08-08T14:49:56.167Z,2.20
2023-08-08T14:52:25.055Z,3.73
2023-08-08T14:54:53.171Z,2.50
2023-08-08T14:57:21.395Z,2.90
2023-08-08T14:59:49.641Z,5.63
2023-08-08T15:02:17.841Z,4.63
2023-08-08T15:04:46.045Z,3.07
2023-08-08T15:07:15.566Z,4.60
2023-08-08T15:09:43.708Z,2.60
2023-08-08T15:12:11.817Z,3.60
2023-08-08T15:14:40.001Z,2.50
2023-08-08T15:17:08.128Z,4.70
2023-08-08T15:19:36.294Z,3.40
2023-08-08T15:22:04.404Z,2.67
2023-08-08T15:24:34.142Z,2.90
2023-08-08T15:27:02.538Z,2.93
2023-08-08T15:29:30.893Z,2.37
2023-08-08T15:31:59.072Z,3.93
2023-08-08T15:34:27.308Z,2.67
2023-08-08T15:36:59.445Z,3.13
2023-08-08T15:39:27.893Z,2.17
2023-08-08T15:41:57.393Z,2.50
2023-08-08T15:44:25.557Z,2.50
2023-08-08T15:46:53.701Z,2.37
2023-08-08T15:49:21.896Z,2.23
2023-08-08T15:51:50.416Z,2.33
2023-08-08T15:54:19.324Z,1.93
2023-08-08T15:56:47.416Z,3.50
2023-08-08T15:59:16.954Z,2.47
2023-08-08T16:01:45.087Z,1.97
2023-08-08T16:04:16.002Z,1.70
2023-08-08T16:06:44.158Z,2.13
2023-08-08T16:09:16.977Z,2.23
2023-08-08T16:11:45.114Z,1.97
2023-08-08T16:14:13.218Z,2.20
2023-08-08T16:16:42.715Z,2.07
2023-08-08T16:19:10.853Z,1.60
2023-08-08T16:21:39.036Z,2.00
2023-08-08T16:24:07.887Z,2.40
2023-08-08T16:26:36.115Z,2.20
2023-08-08T16:29:04.481Z,1.90
2023-08-08T16:31:33.300Z,1.87
2023-08-08T16:34:04.269Z,2.80
2023-08-08T16:36:32.463Z,2.60
2023-08-08T16:39:12.947Z,1.70
2023-08-08T16:41:46.076Z,2.97
2023-08-08T16:44:14.768Z,1.90
2023-08-08T16:46:43.117Z,2.03
2023-08-08T16:49:12.633Z,1.70
2023-08-08T16:51:40.785Z,1.60
2023-08-08T16:54:09.230Z,2.30
2023-08-08T16:56:37.362Z,1.63
2023-08-08T16:59:05.908Z,3.03
2023-08-08T17:01:34.157Z,4.70
2023-08-08T17:04:02.365Z,1.50
2023-08-08T17:06:33.745Z,1.57
2023-08-08T17:09:02.045Z,2.13
2023-08-08T17:11:30.310Z,2.37
2023-08-08T17:13:58.457Z,2.10
2023-08-08T17:16:26.763Z,2.60
2023-08-08T17:18:54.957Z,1.70
2023-08-08T17:21:23.094Z,1.43
2023-08-08T17:24:00.713Z,1.50
2023-08-08T17:26:28.877Z,2.03
2023-08-08T17:28:57.061Z,1.40
2023-08-08T17:31:25.204Z,2.40
2023-08-08T17:33:54.866Z,1.40
2023-08-08T17:36:22.990Z,2.30
2023-08-08T17:39:00.583Z,1.57
2023-08-08T17:41:28.719Z,1.53
2023-08-08T17:43:57.555Z,1.40
2023-08-08T17:46:25.782Z,1.60
2023-08-08T17:48:54.513Z,2.00
2023-08-08T17:51:22.651Z,1.97
2023-08-08T17:53:50.782Z,1.30
2023-08-08T17:56:20.293Z,1.90
2023-08-08T17:58:49.888Z,1.70
2023-08-08T18:01:18.168Z,1.30
2023-08-08T18:03:46.389Z,1.30
2023-08-08T18:06:15.721Z,1.57
2023-08-08T18:08:44.052Z,1.60
2023-08-08T18:11:12.632Z,2.03
2023-08-08T18:13:42.188Z,1.30
2023-08-08T18:16:10.332Z,1.57
2023-08-08T18:18:38.874Z,1.63
2023-08-08T18:21:07.162Z,1.23
2023-08-08T18:23:35.292Z,1.60
2023-08-08T18:26:04.237Z,2.20
2023-08-08T18:28:32.464Z,1.70
2023-08-08T18:31:02.082Z,1.67
2023-08-08T18:33:30.248Z,1.63
2023-08-08T18:35:58.629Z,1.33
2023-08-08T18:38:26.773Z,1.40
2023-08-08T18:40:54.951Z,4.43
2023-08-08T18:43:23.454Z,1.63
2023-08-08T18:45:51.658Z,1.90
2023-08-08T18:48:21.267Z,1.47
2023-08-08T18:50:49.969Z,1.30
2023-08-08T18:53:18.224Z,1.50
2023-08-08T18:55:48.015Z,1.40
2023-08-08T18:58:17.114Z,1.20
2023-08-08T19:00:45.290Z,1.20
2023-08-08T19:03:13.524Z,2.17
2023-08-08T19:05:43.131Z,1.43
2023-08-08T19:08:11.421Z,1.70
2023-08-08T19:10:39.522Z,1.63
2023-08-08T19:13:07.773Z,1.67
2023-08-08T19:15:36.001Z,1.47
2023-08-08T19:18:04.353Z,1.50
2023-08-08T19:20:32.516Z,2.10
2023-08-08T19:23:02.092Z,1.77
2023-08-08T19:25:31.224Z,1.60
2023-08-08T19:27:59.329Z,1.80
2023-08-08T19:30:27.587Z,2.10
2023-08-08T19:32:55.738Z,2.30
2023-08-08T19:35:23.976Z,1.67
2023-08-08T19:37:52.129Z,1.60
2023-08-08T19:40:21.711Z,5.13
2023-08-08T19:42:49.869Z,2.17
2023-08-08T19:45:18.162Z,2.00
2023-08-08T19:47:46.322Z,2.10
2023-08-08T19:50:14.443Z,1.93
2023-08-08T19:52:42.535Z,2.40
2023-08-08T19:55:11.434Z,2.60
2023-08-08T19:57:40.910Z,2.20
2023-08-08T20:00:10.250Z,2.30
2023-08-08T20:02:38.417Z,2.10
2023-08-08T20:05:08.193Z,2.40
2023-08-08T20:07:36.463Z,1.77
2023-08-08T20:10:05.430Z,2.30
2023-08-08T20:12:33.554Z,2.20
2023-08-08T20:15:03.063Z,2.70
2023-08-08T20:17:31.785Z,3.93
2023-08-08T20:19:59.927Z,2.70
2023-08-08T20:22:28.097Z,2.20
2023-08-08T20:24:56.293Z,2.20
2023-08-08T20:27:24.432Z,4.07
2023-08-08T20:29:53.426Z,2.73
2023-08-08T20:32:22.979Z,2.43
2023-08-08T20:34:51.076Z,2.67
2023-08-08T20:37:19.964Z,2.10
2023-08-08T20:39:48.119Z,3.10
2023-08-08T20:42:16.313Z,4.17
2023-08-08T20:44:44.423Z,2.33
2023-08-08T20:47:12.579Z,2.50
2023-08-08T20:49:42.060Z,2.53
2023-08-08T20:52:10.180Z,2.57
2023-08-08T20:54:38.295Z,2.83
2023-08-08T20:57:06.712Z,2.87
2023-08-08T20:59:34.838Z,2.20
2023-08-08T21:02:03.083Z,2.20
2023-08-08T21:04:31.204Z,4.90
2023-08-08T21:07:01.880Z,2.00
2023-08-08T21:09:30.180Z,2.60
2023-08-08T21:11:58.350Z,1.97
2023-08-08T21:14:26.516Z,3.77
2023-08-08T21:16:54.646Z,2.20
2023-08-08T21:19:22.746Z,2.30
2023-08-08T21:21:50.852Z,2.20
2023-08-08T21:24:20.364Z,2.20
2023-08-08T21:26:48.526Z,2.30
2023-08-08T21:29:16.665Z,5.70
2023-08-08T21:31:44.893Z,2.43
2023-08-08T21:34:13.689Z,1.90
2023-08-08T21:36:41.876Z,2.63
2023-08-08T21:39:11.246Z,2.57
2023-08-08T21:41:40.747Z,2.43
2023-08-08T21:44:08.887Z,2.97
2023-08-08T21:46:37.074Z,2.73
2023-08-08T21:49:05.566Z,2.60
2023-08-08T21:51:33.756Z,2.93
2023-08-08T21:54:01.872Z,2.37
2023-08-08T21:56:30.021Z,2.43
2023-08-08T21:58:59.495Z,2.20
2023-08-08T22:01:27.654Z,2.20
2023-08-08T22:03:55.786Z,1.90
2023-08-08T22:06:23.970Z,4.47
2023-08-08T22:08:53.310Z,2.33
2023-08-08T22:11:21.505Z,2.00
2023-08-08T22:13:49.713Z,2.60
2023-08-08T22:16:19.305Z,2.10
2023-08-08T22:18:47.504Z,2.17
2023-08-08T22:21:15.622Z,2.60
2023-08-08T22:23:43.734Z,2.50
2023-08-08T22:26:11.823Z,2.13
2023-08-08T22:28:39.893Z,1.83
2023-08-08T22:31:08.174Z,1.93
2023-08-08T22:33:37.667Z,2.03
2023-08-08T22:36:06.580Z,1.60
2023-08-08T22:38:41.325Z,2.03
2023-08-08T22:41:09.488Z,1.97
2023-08-08T22:43:38.087Z,1.70
2023-08-08T22:46:06.251Z,1.50
2023-08-08T22:48:34.406Z,1.73
2023-08-08T22:51:03.912Z,1.40
2023-08-08T22:53:32.057Z,2.40
2023-08-08T22:56:00.352Z,2.00
2023-08-08T22:58:28.551Z,1.90
2023-08-08T23:00:56.670Z,2.17
2023-08-08T23:03:24.909Z,1.70
2023-08-08T23:05:53.020Z,2.87
2023-08-08T23:08:28.400Z,1.60
2023-08-08T23:10:56.630Z,1.97
2023-08-08T23:13:24.762Z,1.90
2023-08-08T23:15:52.945Z,1.50
2023-08-08T23:18:21.173Z,1.80
2023-08-08T23:20:50.175Z,2.67
2023-08-08T23:23:18.316Z,2.00
2023-08-08T23:25:47.812Z,1.40
2023-08-08T23:28:18.259Z,1.50
2023-08-08T23:30:46.502Z,1.60
2023-08-08T23:33:15.125Z,1.90
2023-08-08T23:35:43.389Z,1.60
2023-08-08T23:38:11.511Z,1.50
2023-08-08T23:40:39.644Z,1.30
2023-08-08T23:43:09.106Z,1.70
2023-08-08T23:45:41.422Z,1.60
2023-08-08T23:48:09.902Z,1.70
2023-08-08T23:50:38.038Z,1.87
2023-08-08T23:53:06.161Z,1.70
2023-08-08T23:55:34.497Z,1.70
2023-08-08T23:58:02.610Z,1.87
